createdAt,value
2019-05-05T00:01:36.497Z,99.90
2019-05-05T00:03:48.909Z,99.90
2019-05-05T00:05:54.711Z,99.90
2019-05-05T00:07:58.699Z,99.90
2019-05-05T00:10:05.493Z,99.90
2019-05-05T00:12:27.848Z,99.90
2019-05-05T00:15:11.947Z,99.90
2019-05-05T00:17:18.859Z,99.90
2019-05-05T00:19:32.955Z,99.90
2019-05-05T00:21:29.788Z,99.90
2019-05-05T00:23:36.137Z,99.90
2019-05-05T00:25:47.201Z,99.90
2019-05-05T00:28:32.930Z,99.90
2019-05-05T00:31:04.651Z,99.90
2019-05-05T00:33:18.165Z,99.90
2019-05-05T00:36:07.683Z,99.90
2019-05-05T00:38:50.974Z,99.90
2019-05-05T00:41:05.430Z,99.90
2019-05-05T00:43:17.194Z,99.90
2019-05-05T00:45:39.819Z,99.90
2019-05-05T00:48:05.992Z,99.90
2019-05-05T00:50:26.500Z,99.90
2019-05-05T00:52:37.121Z,99.90
2019-05-05T00:54:50.720Z,99.90
2019-05-05T00:57:06.919Z,99.90
2019-05-05T00:59:45.363Z,99.90
2019-05-05T01:02:07.691Z,99.90
2019-05-05T01:04:18.081Z,99.90
2019-05-05T01:06:30.274Z,99.90
2019-05-05T01:08:44.512Z,99.90
2019-05-05T01:10:47.229Z,99.90
2019-05-05T01:12:51.096Z,99.90
2019-05-05T01:14:55.354Z,99.90
2019-05-05T01:16:59.219Z,99.90
2019-05-05T01:19:04.507Z,99.90
2019-05-05T01:21:08.836Z,99.90
2019-05-05T01:23:14.894Z,99.90
2019-05-05T01:25:18.608Z,99.90
2019-05-05T01:27:25.211Z,99.90
2019-05-05T01:29:28.593Z,99.90
2019-05-05T01:31:34.539Z,99.90
2019-05-05T01:33:59.821Z,99.90
2019-05-05T01:36:04.726Z,99.90
2019-05-05T01:38:14.536Z,99.90
2019-05-05T01:40:27.337Z,99.90
2019-05-05T01:42:31.551Z,99.90
2019-05-05T01:44:35.562Z,99.90
2019-05-05T01:46:39.411Z,99.90
2019-05-05T01:48:44.505Z,99.90
2019-05-05T01:50:48.589Z,99.90
2019-05-05T01:52:52.599Z,99.90
2019-05-05T01:54:56.413Z,99.90
2019-05-05T01:57:00.591Z,99.90
2019-05-05T01:59:05.289Z,99.90
2019-05-05T02:01:09.291Z,99.90
2019-05-05T02:03:14.753Z,99.90
2019-05-05T02:05:18.711Z,99.90
2019-05-05T02:07:22.571Z,99.90
2019-05-05T02:09:28.051Z,99.90
2019-05-05T02:11:32.219Z,99.90
2019-05-05T02:13:36.423Z,99.90
2019-05-05T02:15:40.341Z,99.90
2019-05-05T02:17:45.414Z,99.90
2019-05-05T02:19:49.344Z,99.90
2019-05-05T02:21:54.763Z,99.90
2019-05-05T02:23:58.940Z,99.90
2019-05-05T02:26:04.627Z,99.90
2019-05-05T02:28:08.678Z,99.90
2019-05-05T02:30:38.916Z,99.90
2019-05-05T02:32:55.193Z,99.90
2019-05-05T02:34:59.492Z,99.90
2019-05-05T02:37:05.478Z,99.90
2019-05-05T02:39:15.735Z,99.90
2019-05-05T02:41:20.416Z,99.90
2019-05-05T02:43:25.904Z,99.90
2019-05-05T02:45:39.001Z,99.90
2019-05-05T02:48:20.398Z,99.90
2019-05-05T02:50:26.035Z,99.90
2019-05-05T02:52:31.022Z,99.90
2019-05-05T02:54:36.221Z,99.90
2019-05-05T02:56:46.964Z,99.90
2019-05-05T02:58:53.733Z,99.90
2019-05-05T03:01:15.798Z,99.90
2019-05-05T03:03:19.986Z,99.90
2019-05-05T03:05:23.980Z,99.90
2019-05-05T03:07:28.667Z,99.90
2019-05-05T03:09:34.679Z,99.90
2019-05-05T03:11:39.672Z,99.90
2019-05-05T03:13:45.087Z,99.90
2019-05-05T03:16:03.638Z,99.90
2019-05-05T03:18:13.443Z,99.90
2019-05-05T03:20:18.698Z,99.90
2019-05-05T03:22:23.739Z,99.90
2019-05-05T03:24:27.790Z,99.90
2019-05-05T03:26:34.073Z,99.90
2019-05-05T03:28:44.719Z,99.90
2019-05-05T03:30:50.078Z,99.90
2019-05-05T03:32:55.855Z,99.90
2019-05-05T03:34:59.963Z,99.90
2019-05-05T03:37:04.323Z,99.90
2019-05-05T03:39:10.290Z,99.90
2019-05-05T03:41:23.384Z,99.90
2019-05-05T03:43:30.788Z,99.90
2019-05-05T03:45:53.826Z,99.90
2019-05-05T03:47:58.259Z,99.90
2019-05-05T03:50:04.182Z,99.90
2019-05-05T03:52:08.068Z,99.90
2019-05-05T03:54:14.433Z,99.90
2019-05-05T03:56:18.131Z,99.90
2019-05-05T03:58:24.057Z,99.90
2019-05-05T04:01:08.567Z,99.90
2019-05-05T04:03:14.540Z,99.90
2019-05-05T04:05:23.558Z,99.90
2019-05-05T04:07:27.644Z,99.90
2019-05-05T04:09:31.756Z,99.90
2019-05-05T04:11:35.705Z,99.90
2019-05-05T04:13:39.960Z,99.90
2019-05-05T04:15:45.670Z,99.90
2019-05-05T04:18:08.176Z,99.90
2019-05-05T04:20:26.406Z,99.90
2019-05-05T04:22:34.178Z,99.90
2019-05-05T04:24:37.831Z,99.90
2019-05-05T04:26:44.717Z,99.90
2019-05-05T04:28:48.555Z,99.90
2019-05-05T04:30:53.675Z,99.90
2019-05-05T04:32:57.495Z,99.90
2019-05-05T04:35:03.556Z,99.90
2019-05-05T04:37:07.126Z,99.90
2019-05-05T04:39:10.929Z,99.90
2019-05-05T04:41:14.696Z,99.90
2019-05-05T04:43:18.508Z,99.90
2019-05-05T04:45:24.072Z,99.90
2019-05-05T04:47:31.843Z,99.90
2019-05-05T04:49:54.695Z,99.90
2019-05-05T04:51:59.639Z,99.90
2019-05-05T04:54:11.528Z,99.90
2019-05-05T04:56:15.497Z,99.90
2019-05-05T04:58:19.273Z,99.90
2019-05-05T05:00:24.603Z,99.90
2019-05-05T05:02:46.135Z,99.90
2019-05-05T05:04:56.446Z,99.90
2019-05-05T05:07:00.418Z,99.90
2019-05-05T05:09:05.568Z,99.90
2019-05-05T05:11:09.508Z,99.90
2019-05-05T05:13:13.888Z,99.90
2019-05-05T05:15:17.993Z,99.90
2019-05-05T05:17:27.171Z,99.90
2019-05-05T05:19:31.006Z,99.90
2019-05-05T05:21:34.849Z,99.70
2019-05-05T05:23:38.869Z,98.80
2019-05-05T05:25:43.853Z,93.30
2019-05-05T05:27:47.799Z,91.40
2019-05-05T05:29:51.613Z,94.90
2019-05-05T05:31:55.455Z,92.40
2019-05-05T05:33:59.227Z,87.90
2019-05-05T05:36:03.995Z,86.20
2019-05-05T05:38:08.044Z,87.70
2019-05-05T05:40:23.752Z,87.70
2019-05-05T05:42:27.567Z,85.10
2019-05-05T05:44:40.406Z,86.20
2019-05-05T05:46:57.495Z,85.70
2019-05-05T05:49:13.552Z,84.70
2019-05-05T05:51:19.739Z,82.00
2019-05-05T05:53:24.407Z,86.10
2019-05-05T05:55:28.535Z,81.20
2019-05-05T05:57:34.441Z,83.10
2019-05-05T05:59:37.819Z,79.00
2019-05-05T06:01:43.625Z,79.20
2019-05-05T06:03:47.222Z,75.60
2019-05-05T06:05:51.020Z,78.00
2019-05-05T06:07:54.867Z,76.00
2019-05-05T06:09:58.737Z,75.80
2019-05-05T06:12:03.614Z,76.40
2019-05-05T06:14:07.599Z,76.10
2019-05-05T06:16:11.493Z,77.20
2019-05-05T06:18:15.343Z,80.10
2019-05-05T06:20:19.143Z,81.50
2019-05-05T06:22:29.190Z,83.10
2019-05-05T06:24:28.446Z,86.70
2019-05-05T06:26:34.292Z,91.10
2019-05-05T06:28:38.311Z,93.90
2019-05-05T06:30:44.092Z,98.20
2019-05-05T06:32:49.273Z,99.90
2019-05-05T06:34:53.461Z,99.90
2019-05-05T06:36:57.480Z,99.90
2019-05-05T06:39:01.255Z,99.90
2019-05-05T06:41:39.122Z,99.90
2019-05-05T06:44:19.966Z,99.90
2019-05-05T06:46:27.236Z,99.90
2019-05-05T06:48:31.011Z,99.90
2019-05-05T06:50:35.884Z,99.90
2019-05-05T06:52:45.177Z,99.90
2019-05-05T06:54:48.030Z,99.90
2019-05-05T06:56:53.751Z,99.90
2019-05-05T06:58:57.439Z,99.90
2019-05-05T07:01:03.476Z,99.90
2019-05-05T07:03:07.847Z,99.90
2019-05-05T07:05:11.892Z,99.90
2019-05-05T07:07:15.775Z,99.90
2019-05-05T07:09:19.568Z,99.90
2019-05-05T07:11:23.784Z,99.90
2019-05-05T07:13:37.563Z,99.90
2019-05-05T07:15:43.588Z,99.90
2019-05-05T07:17:47.031Z,99.90
2019-05-05T07:19:50.975Z,99.90
2019-05-05T07:21:54.759Z,99.90
2019-05-05T07:23:58.559Z,99.90
2019-05-05T07:26:04.210Z,99.90
2019-05-05T07:28:07.992Z,99.90
2019-05-05T07:30:13.793Z,99.90
2019-05-05T07:32:20.610Z,99.90
2019-05-05T07:34:26.331Z,99.90
2019-05-05T07:36:37.519Z,99.90
2019-05-05T07:38:41.301Z,99.90
2019-05-05T07:40:45.158Z,99.90
2019-05-05T07:42:49.007Z,99.90
2019-05-05T07:44:54.718Z,99.90
2019-05-05T07:46:58.587Z,99.90
2019-05-05T07:51:07.792Z,99.90
2019-05-05T07:53:15.042Z,99.90
2019-05-05T07:55:17.222Z,99.90
2019-05-05T07:57:21.061Z,99.90
2019-05-05T07:59:24.987Z,99.90
2019-05-05T08:01:28.838Z,99.90
2019-05-05T08:03:33.868Z,99.90
2019-05-05T08:05:38.095Z,99.90
2019-05-05T08:07:41.912Z,99.90
2019-05-05T08:09:45.769Z,99.90
2019-05-05T08:13:54.743Z,99.90
2019-05-05T08:16:00.639Z,99.90
2019-05-05T08:18:16.043Z,99.90
2019-05-05T08:20:23.896Z,99.90
2019-05-05T08:22:27.871Z,99.90
2019-05-05T08:25:08.060Z,99.90
2019-05-05T08:27:26.575Z,97.40
2019-05-05T08:29:37.695Z,98.20
2019-05-05T08:31:55.885Z,97.10
2019-05-05T08:33:59.753Z,96.00
2019-05-05T08:36:04.602Z,97.60
2019-05-05T08:38:08.486Z,96.40
2019-05-05T08:40:14.677Z,95.00
2019-05-05T08:44:23.544Z,94.10
2019-05-05T08:46:27.172Z,92.40
2019-05-05T08:48:31.252Z,93.00
2019-05-05T08:50:36.183Z,92.60
2019-05-05T08:52:40.128Z,92.10
2019-05-05T08:54:46.191Z,92.60
2019-05-05T08:56:50.063Z,94.00
2019-05-05T08:58:56.183Z,93.70
2019-05-05T09:01:00.187Z,94.10
2019-05-05T09:03:04.252Z,93.40
2019-05-05T09:05:16.798Z,93.60
2019-05-05T09:09:36.494Z,90.90
2019-05-05T09:14:44.741Z,83.00
2019-05-05T09:17:04.159Z,88.00
2019-05-05T09:19:25.316Z,90.80
2019-05-05T09:22:06.820Z,87.70
2019-05-05T09:24:19.899Z,85.10
2019-05-05T09:26:48.133Z,85.30
2019-05-05T09:29:34.826Z,85.50
2019-05-05T09:32:09.224Z,84.20
2019-05-05T09:34:34.619Z,82.30
2019-05-05T09:36:39.279Z,82.10
2019-05-05T09:42:07.709Z,73.50
2019-05-05T09:44:07.330Z,70.70
2019-05-05T09:46:11.751Z,70.40
2019-05-05T09:50:50.700Z,62.40
2019-05-05T09:56:41.632Z,67.50
2019-05-05T09:59:30.207Z,70.50
2019-05-05T10:04:27.563Z,78.80
2019-05-05T10:06:51.102Z,85.00
2019-05-05T10:09:53.732Z,86.00
2019-05-05T10:12:04.660Z,87.80
2019-05-05T10:14:08.690Z,89.40
2019-05-05T10:16:14.312Z,89.20
2019-05-05T10:18:20.998Z,89.70
2019-05-05T10:20:25.219Z,87.70
2019-05-05T10:22:29.030Z,87.10
2019-05-05T10:24:37.737Z,84.70
2019-05-05T10:29:57.897Z,80.80
2019-05-05T10:32:09.536Z,79.30
2019-05-05T10:34:13.620Z,78.10
2019-05-05T10:36:17.926Z,71.50
2019-05-05T10:38:23.577Z,70.70
2019-05-05T10:40:33.864Z,69.60
2019-05-05T10:42:50.011Z,67.80
2019-05-05T10:44:59.516Z,65.40
2019-05-05T10:57:15.530Z,56.00
2019-05-05T10:59:23.804Z,55.70
2019-05-05T11:01:35.596Z,56.90
2019-05-05T11:03:47.456Z,59.10
2019-05-05T11:07:09.277Z,59.60
2019-05-05T11:12:04.574Z,61.70
2019-05-05T11:20:44.529Z,62.80
2019-05-05T11:20:55.405Z,62.90
2019-05-05T11:26:39.405Z,64.90
2019-05-05T11:28:44.540Z,67.00
2019-05-05T11:30:48.747Z,66.50
2019-05-05T11:33:10.336Z,66.50
2019-05-05T11:35:14.927Z,65.20
2019-05-05T11:37:20.900Z,64.40
2019-05-05T11:39:25.532Z,64.70
2019-05-05T11:41:29.888Z,62.10
2019-05-05T11:43:35.938Z,60.30
2019-05-05T11:45:43.681Z,59.10
2019-05-05T11:48:05.109Z,59.30
2019-05-05T11:50:07.403Z,59.20
2019-05-05T11:52:21.762Z,62.50
2019-05-05T11:54:26.517Z,58.30
2019-05-05T11:56:34.186Z,58.10
2019-05-05T11:58:39.166Z,58.50
2019-05-05T12:00:45.350Z,57.00
2019-05-05T12:02:50.676Z,54.80
2019-05-05T12:04:58.276Z,56.40
2019-05-05T12:07:09.711Z,54.20
2019-05-05T12:09:30.080Z,51.30
2019-05-05T12:11:36.133Z,52.40
2019-05-05T12:13:43.487Z,53.50
2019-05-05T12:15:54.713Z,53.00
2019-05-05T12:18:05.095Z,53.90
2019-05-05T12:20:23.713Z,53.40
2019-05-05T12:22:44.846Z,53.90
2019-05-05T12:25:04.136Z,54.30
2019-05-05T12:27:26.445Z,53.60
2019-05-05T12:29:35.210Z,53.70
2019-05-05T12:31:44.392Z,53.10
2019-05-05T12:33:48.979Z,51.60
2019-05-05T12:35:53.946Z,49.70
2019-05-05T12:38:04.302Z,50.00
2019-05-05T12:40:08.936Z,50.80
2019-05-05T12:42:14.051Z,51.60
2019-05-05T12:44:43.505Z,50.80
2019-05-05T12:47:09.186Z,51.00
2019-05-05T12:49:13.951Z,47.20
2019-05-05T12:51:18.090Z,48.80
2019-05-05T12:53:23.779Z,48.90
2019-05-05T12:55:39.073Z,50.30
2019-05-05T12:57:34.265Z,50.60
2019-05-05T12:59:38.200Z,52.10
2019-05-05T13:01:44.114Z,52.50
2019-05-05T13:03:49.702Z,51.50
2019-05-05T13:05:54.131Z,53.90
2019-05-05T13:08:23.455Z,53.90
2019-05-05T13:13:11.643Z,55.00
2019-05-05T13:15:16.903Z,53.40
2019-05-05T13:17:33.886Z,53.30
2019-05-05T13:22:35.102Z,51.80
2019-05-05T13:25:04.641Z,51.00
2019-05-05T13:27:24.857Z,50.40
2019-05-05T13:29:35.604Z,50.00
2019-05-05T13:31:47.487Z,49.20
2019-05-05T13:33:51.756Z,48.90
2019-05-05T13:36:10.436Z,48.80
2019-05-05T13:38:51.939Z,46.60
2019-05-05T13:40:54.738Z,46.60
2019-05-05T13:42:58.798Z,47.60
2019-05-05T13:45:08.808Z,47.00
2019-05-05T13:48:34.349Z,47.60
2019-05-05T13:49:39.936Z,47.60
2019-05-05T13:51:56.876Z,47.30
2019-05-05T13:54:10.872Z,47.00
2019-05-05T13:59:30.772Z,46.70
2019-05-05T14:02:07.453Z,47.40
2019-05-05T14:07:31.292Z,46.50
2019-05-05T14:09:35.361Z,47.60
2019-05-05T14:11:39.259Z,48.20
2019-05-05T14:13:45.541Z,49.50
2019-05-05T14:15:50.047Z,50.30
2019-05-05T14:17:54.448Z,50.20
2019-05-05T14:20:04.760Z,50.20
2019-05-05T14:22:04.554Z,48.90
2019-05-05T14:24:15.908Z,49.30
2019-05-05T14:26:25.621Z,49.40
2019-05-05T14:28:25.499Z,48.70
2019-05-05T14:30:50.479Z,49.50
2019-05-05T14:32:55.698Z,48.80
2019-05-05T14:35:09.417Z,49.40
2019-05-05T14:37:28.313Z,49.10
2019-05-05T14:39:34.054Z,48.60
2019-05-05T14:41:37.784Z,48.30
2019-05-05T14:43:43.766Z,48.10
2019-05-05T14:45:47.450Z,49.30
2019-05-05T14:47:53.322Z,48.90
2019-05-05T14:49:56.799Z,49.80
2019-05-05T14:52:00.596Z,51.10
2019-05-05T14:54:04.733Z,53.30
2019-05-05T14:56:08.761Z,53.40
2019-05-05T14:58:14.245Z,53.70
2019-05-05T15:00:20.620Z,54.60
2019-05-05T15:02:24.597Z,55.00
2019-05-05T15:04:30.448Z,54.50
2019-05-05T15:06:41.583Z,54.40
2019-05-05T15:08:56.980Z,54.20
2019-05-05T15:11:14.316Z,53.00
2019-05-05T15:13:18.696Z,53.20
2019-05-05T15:15:23.541Z,53.10
2019-05-05T15:17:27.508Z,53.10
2019-05-05T15:19:33.935Z,51.90
2019-05-05T15:21:38.770Z,51.60
2019-05-05T15:23:45.060Z,50.40
2019-05-05T15:25:49.979Z,50.50
2019-05-05T15:27:54.288Z,50.90
2019-05-05T15:29:58.132Z,51.60
2019-05-05T15:32:04.214Z,52.30
2019-05-05T15:34:07.840Z,51.80
2019-05-05T15:38:15.180Z,50.30
2019-05-05T15:40:19.149Z,51.40
2019-05-05T15:42:23.466Z,51.60
2019-05-05T15:44:27.248Z,52.10
2019-05-05T15:46:31.033Z,52.10
2019-05-05T15:48:34.909Z,52.20
2019-05-05T15:50:38.692Z,52.10
2019-05-05T15:52:44.312Z,52.10
2019-05-05T15:54:48.292Z,52.90
2019-05-05T15:57:02.951Z,52.60
2019-05-05T15:58:57.634Z,52.60
2019-05-05T16:01:03.652Z,53.90
2019-05-05T16:03:07.411Z,52.00
2019-05-05T16:05:15.968Z,52.50
2019-05-05T16:07:19.803Z,52.70
2019-05-05T16:13:29.196Z,53.40
2019-05-05T16:15:49.479Z,53.60
2019-05-05T16:18:10.575Z,53.70
2019-05-05T16:20:19.280Z,52.30
2019-05-05T16:22:44.793Z,52.20
2019-05-05T16:25:07.669Z,52.10
2019-05-05T16:27:21.671Z,50.20
2019-05-05T16:29:23.645Z,49.20
2019-05-05T16:31:27.752Z,49.20
2019-05-05T16:33:33.462Z,49.70
2019-05-05T16:35:40.672Z,48.00
2019-05-05T16:37:45.036Z,48.50
2019-05-05T16:40:28.149Z,49.20
2019-05-05T16:43:26.458Z,49.60
2019-05-05T16:55:48.349Z,49.30
2019-05-05T16:58:06.705Z,47.90
2019-05-05T17:00:11.066Z,48.90
2019-05-05T17:02:15.907Z,48.20
2019-05-05T17:04:19.815Z,48.70
2019-05-05T17:06:26.128Z,49.60
2019-05-05T17:08:30.077Z,48.80
2019-05-05T17:10:34.333Z,49.60
2019-05-05T17:12:38.465Z,49.60
2019-05-05T17:14:51.073Z,50.10
2019-05-05T17:17:19.786Z,50.50
2019-05-05T17:19:37.356Z,51.00
2019-05-05T17:31:08.863Z,52.00
2019-05-05T17:33:44.053Z,53.00
2019-05-05T17:53:40.415Z,59.60
2019-05-05T18:07:34.598Z,66.30
2019-05-05T18:09:57.154Z,68.60
2019-05-05T18:16:18.786Z,70.10
2019-05-05T18:18:26.072Z,68.90
2019-05-05T18:20:30.197Z,68.50
2019-05-05T18:22:34.322Z,69.00
2019-05-05T18:24:38.447Z,68.80
2019-05-05T18:26:43.544Z,69.60
2019-05-05T18:28:48.144Z,70.00
2019-05-05T18:30:54.061Z,70.00
2019-05-05T18:33:33.983Z,70.40
2019-05-05T18:39:05.103Z,71.90
2019-05-05T18:41:44.020Z,73.30
2019-05-05T18:47:29.181Z,74.70
2019-05-05T18:49:36.210Z,74.80
2019-05-05T18:51:40.718Z,75.70
2019-05-05T18:54:16.127Z,75.80
2019-05-05T18:56:20.545Z,76.80
2019-05-05T18:58:29.812Z,77.20
2019-05-05T19:00:48.527Z,77.70
2019-05-05T19:03:24.513Z,78.50
2019-05-05T19:05:54.851Z,79.10
2019-05-05T19:08:04.628Z,79.60
2019-05-05T19:10:34.327Z,80.70
2019-05-05T19:12:38.458Z,80.90
2019-05-05T19:14:45.598Z,81.80
2019-05-05T19:16:49.950Z,82.20
2019-05-05T19:18:55.729Z,83.00
2019-05-05T19:22:29.193Z,84.40
2019-05-05T19:23:35.643Z,84.80
2019-05-05T19:25:44.706Z,85.60
2019-05-05T19:28:08.224Z,87.90
2019-05-05T19:30:14.123Z,89.00
2019-05-05T19:32:29.461Z,90.50
2019-05-05T19:34:38.118Z,91.40
2019-05-05T19:36:50.697Z,92.50
2019-05-05T19:39:19.187Z,93.20
2019-05-05T19:41:29.693Z,93.60
2019-05-05T19:47:06.193Z,95.70
2019-05-05T19:49:34.418Z,96.30
2019-05-05T19:51:51.087Z,97.20
2019-05-05T19:53:56.033Z,97.40
2019-05-05T19:56:07.500Z,98.30
2019-05-05T19:59:08.692Z,98.60
2019-05-05T20:01:39.577Z,99.50
2019-05-05T20:03:44.060Z,99.90
2019-05-05T20:06:00.410Z,99.90
2019-05-05T20:19:30.295Z,99.90
2019-05-05T20:50:58.058Z,99.90
2019-05-05T20:53:13.895Z,99.90
2019-05-05T20:55:19.449Z,99.90
2019-05-05T20:57:23.648Z,99.90
2019-05-05T21:01:34.104Z,99.90
2019-05-05T21:04:34.400Z,99.90
2019-05-05T21:41:24.651Z,99.90
2019-05-05T21:47:49.421Z,99.90
2019-05-05T21:54:10.293Z,99.90
2019-05-05T22:03:14.003Z,99.90
2019-05-05T22:25:04.493Z,99.90
2019-05-05T22:30:43.595Z,99.90
2019-05-05T22:50:45.159Z,99.90
2019-05-05T22:56:11.328Z,99.90
2019-05-05T23:02:33.918Z,99.90
2019-05-05T23:11:26.173Z,99.90
2019-05-05T23:16:14.706Z,99.90
2019-05-05T23:19:10.084Z,99.90
2019-05-05T23:22:10.735Z,99.90
2019-05-05T23:27:45.212Z,99.90
2019-05-05T23:34:17.046Z,99.90
2019-05-05T23:36:39.245Z,99.90
2019-05-05T23:42:08.728Z,99.90
2019-05-05T23:44:44.016Z,99.90
2019-05-05T23:47:34.660Z,99.90
2019-05-05T23:49:49.765Z,99.90
2019-05-05T23:52:04.500Z,99.90
